Latest Weather Observations for Lochington

IDQ60801

Issued at 11:08 am EST Wednesday 27 July 2016 (issued every 30 minutes, with the page automatically refreshed every 10 minutes)

About weather observations | Map of weather stations | Latest weather observations for QLD | Other Formats
Station Details ID: 035139 Name: LOCHINGTON Lat: -23.94 Lon: 147.53 Height: 267.19 m
Data from the previous 72 hours. | See also: Recent months at Lochington
Date/Time
EST
Temp
°C
App
Temp
°C
Dew
Point
°C
Rel
Hum
%
Delta-T
°C
Wind Press
QNH
hPa
Press
MSL
hPa
Rain since
9am
mm
Dir  Spd
km/h
Gust
km/h
Spd
kts
Gust
kts
27/11:00am 17.5 13.5 5.1 44 6.0 SSW 15 24 8 13 1022.1 1021.8 0.0
27/10:30am 17.4 13.6 6.0 47 5.6 SSW 15 26 8 14 1022.1 1021.8 0.0
27/10:00am 16.4 12.7 6.5 52 4.9 SSW 15 26 8 14 1022.1 1021.8 0.0
27/09:30am 15.8 12.7 7.3 57 4.3 SSW 13 19 7 10 1022.4 1022.1 0.0
27/09:00am 15.2 13.8 9.6 69 2.9 SW 7 13 4 7 1022.4 1022.1 0.0
27/08:30am 14.4 13.7 10.0 75 2.3 SSW 4 7 2 4 1021.5 1021.2 0.0
27/08:00am 14.1 13.9 10.3 78 2.0 E 2 6 1 3 1021.2 1020.9 0.0
27/07:30am 13.7 13.7 11.0 84 1.4 S 2 6 1 3 1021.0 1020.7 0.0
27/07:00am 13.7 12.9 11.0 84 1.4 SW 6 9 3 5 1021.3 1021.0 0.0
27/06:30am 13.7 13.6 10.7 82 1.6 SSW 2 6 1 3 1020.5 1020.2 0.0
27/06:00am 13.9 13.3 10.5 80 1.8 SW 4 6 2 3 1020.3 1020.0 0.0
27/05:30am 14.1 14.3 10.5 79 1.9 CALM 0 4 0 2 1019.5 1019.2 0.0
27/05:00am 13.7 13.5 10.5 81 1.7 SSW 2 6 1 3 1019.2 1018.9 0.0
27/04:30am 13.7 13.1 10.3 80 1.8 SSW 4 6 2 3 1019.0 1018.7 0.0
27/04:00am 13.7 13.1 10.3 80 1.8 S 4 4 2 2 1018.9 1018.6 0.0
27/03:30am 13.7 13.6 10.7 82 1.6 ESE 2 4 1 2 1018.7 1018.4 0.0
27/03:00am 13.9 14.1 10.7 81 1.7 CALM 0 0 0 0 1018.8 1018.5 0.0
27/02:30am 14.4 14.2 10.6 78 2.0 WSW 2 7 1 4 1019.0 1018.7 0.0
27/02:00am 14.4 13.9 10.8 79 1.9 WSW 4 7 2 4 1019.0 1018.7 0.0
27/01:30am 14.6 14.2 11.2 80 1.8 W 4 6 2 3 1019.0 1018.7 0.0
27/01:00am 14.8 13.9 11.2 79 1.9 NNW 7 11 4 6 1018.9 1018.6 0.0
27/12:30am 14.9 14.8 10.7 76 2.2 W 2 2 1 1 1019.4 1019.1 0.0
27/12:00am 15.2 14.7 10.6 74 2.5 WSW 4 6 2 3 1019.5 1019.2 0.0
 
Date/Time
EST
Temp
°C
App
Temp
°C
Dew
Point
°C
Rel
Hum
%
Delta-T
°C
Wind Press
QNH
hPa
Press
MSL
hPa
Rain since
9am
mm
Dir  Spd
km/h
Gust
km/h
Spd
kts
Gust
kts
26/11:30pm 15.4 14.9 10.8 74 2.5 SW 4 6 2 3 1019.8 1019.5 0.0
26/11:00pm 15.6 15.2 11.0 74 2.5 SW 4 6 2 3 1019.8 1019.5 0.0
26/10:30pm 15.9 15.5 11.1 73 2.6 SW 4 6 2 3 1019.8 1019.5 0.0
26/10:00pm 16.1 15.7 11.1 72 2.7 SW 4 6 2 3 1019.7 1019.4 0.0
26/09:30pm 16.0 16.5 11.6 75 2.4 CALM 0 0 0 0 1019.6 1019.3 0.0
26/09:00pm 16.8 16.0 9.5 62 3.8 E 4 4 2 2 1019.3 1019.0 0.0
26/08:30pm 17.0 16.8 9.2 60 4.1 CALM 0 0 0 0 1019.2 1018.9 0.0
26/08:00pm 16.9 16.1 9.8 63 3.8 ESE 4 6 2 3 1019.0 1018.7 0.0
26/07:30pm 17.2 16.0 9.6 61 4.0 E 6 6 3 3 1018.8 1018.5 0.0
26/07:00pm 17.8 16.5 9.2 57 4.5 E 6 7 3 4 1018.4 1018.1 0.0
26/06:30pm 19.0 17.2 7.1 46 6.1 ENE 6 7 3 4 1018.1 1017.8 0.0
26/06:00pm 18.7 18.3 8.1 50 5.5 CALM 0 4 0 2 1018.0 1017.7 0.0
26/05:30pm 19.4 17.6 7.2 45 6.3 NE 6 6 3 3 1017.7 1017.4 0.0
26/05:00pm 19.9 17.9 6.3 41 6.9 ENE 6 6 3 3 1017.4 1017.1 0.0
26/04:30pm 20.4 18.3 6.0 39 7.3 NE 6 9 3 5 1017.1 1016.8 0.0
26/04:00pm 20.8 18.7 5.6 37 7.6 NE 6 9 3 5 1017.1 1016.8 0.0
26/03:30pm 21.0 18.5 4.6 34 8.1 NE 7 13 4 7 1017.0 1016.7 0.0
26/03:00pm 21.6 19.4 5.5 35 8.1 NE 6 11 3 6 1017.0 1016.7 0.0
26/02:30pm 21.4 19.2 6.1 37 7.8 NE 7 15 4 8 1017.1 1016.8 0.0
26/02:00pm 21.8 19.6 6.1 36 8.0 NE 7 13 4 7 1017.4 1017.1 0.0
26/01:30pm 22.2 20.0 6.4 36 8.1 NNE 7 17 4 9 1017.7 1017.4 0.0
26/01:00pm 21.1 18.8 5.9 37 7.7 ENE 7 19 4 10 1018.3 1018.0 0.0
26/12:30pm 21.2 18.6 6.3 38 7.6 E 9 17 5 9 1018.9 1018.6 0.0
26/12:00pm 19.8 17.5 5.8 40 7.0 SE 7 11 4 6 1019.4 1019.1 0.0
26/11:30am 19.6 17.3 5.6 40 7.0 ENE 7 13 4 7 1019.8 1019.5 0.0
26/11:00am 18.1 16.4 5.7 44 6.1 ENE 4 7 2 4 1020.7 1020.4 0.0
26/10:30am 17.8 16.1 6.0 46 5.9 ENE 4 6 2 3 1020.7 1020.4 0.0
26/10:00am 16.9 16.3 7.3 53 4.8 CALM 0 4 0 2 1020.9 1020.6 0.0
26/09:30am 14.6 13.1 6.9 60 3.8 SSW 4 6 2 3 1021.3 1021.0 0.0
26/09:00am 14.6 13.1 6.7 59 3.9 ESE 4 7 2 4 1020.8 1020.5 0.0
26/08:30am 11.8 11.1 8.5 80 1.7 NNW 2 4 1 2 1020.3 1020.0 0.0
26/08:00am 10.6 9.4 6.6 76 1.9 WNW 2 4 1 2 1020.5 1020.2 0.0
26/07:30am 8.8 7.6 6.6 86 1.0 WNW 2 4 1 2 1020.3 1020.0 0.0
26/07:00am 7.3 5.5 5.4 88 0.9 W 4 6 2 3 1020.2 1019.9 0.0
26/06:30am 7.6 5.5 5.7 88 0.9 WSW 6 9 3 5 1019.8 1019.5 0.0
26/06:00am 6.8 4.6 5.1 89 0.8 WNW 6 6 3 3 1019.4 1019.1 0.0
26/05:30am 6.9 4.7 5.4 90 0.7 WNW 6 6 3 3 1018.9 1018.6 0.0
26/05:00am 7.3 5.5 5.3 87 0.9 W 4 6 2 3 1018.8 1018.5 0.0
26/04:30am 7.3 5.1 5.4 88 0.9 NW 6 6 3 3 1018.4 1018.1 0.0
26/04:00am 7.3 5.1 5.3 87 0.9 WNW 6 7 3 4 1018.5 1018.2 0.0
26/03:30am 8.0 6.2 5.3 83 1.2 WNW 4 6 2 3 1018.4 1018.1 0.0
26/03:00am 8.7 7.3 5.6 81 1.4 WNW 2 4 1 2 1018.4 1018.1 0.0
26/02:30am 8.4 6.6 5.2 80 1.5 WSW 4 6 2 3 1018.7 1018.4 0.0
26/02:00am 9.3 8.0 6.0 80 1.5 SW 2 6 1 3 1018.7 1018.4 0.0
26/01:30am 8.4 6.5 6.5 88 0.9 WSW 6 6 3 3 1019.0 1018.7 0.0
26/01:00am 8.2 6.2 6.3 88 0.9 W 6 7 3 4 1019.0 1018.7 0.0
26/12:30am 9.1 8.0 6.7 85 1.1 W 2 6 1 3 1019.2 1018.9 0.0
26/12:00am 10.3 8.4 6.6 78 1.8 WNW 6 6 3 3 1019.3 1019.0 0.0
 
Date/Time
EST
Temp
°C
App
Temp
°C
Dew
Point
°C
Rel
Hum
%
Delta-T
°C
Wind Press
QNH
hPa
Press
MSL
hPa
Rain since
9am
mm
Dir  Spd
km/h
Gust
km/h
Spd
kts
Gust
kts
25/11:30pm 9.2 7.4 7.2 87 1.0 WNW 6 7 3 4 1019.3 1019.0 0.0
25/11:00pm 10.3 8.6 7.7 84 1.3 WNW 6 6 3 3 1019.3 1019.0 0.0
25/10:30pm 10.1 8.5 8.2 88 0.9 WNW 6 6 3 3 1019.3 1019.0 0.0
25/10:00pm 10.3 9.8 7.7 84 1.3 CALM 0 0 0 0 1019.4 1019.1 0.0
25/09:30pm 11.1 10.6 8.0 81 1.5 CALM 0 0 0 0 1019.2 1018.9 0.0
25/09:00pm 11.5 11.1 8.2 80 1.6 CALM 0 0 0 0 1019.3 1019.0 0.0
25/08:30pm 13.8 12.3 6.7 62 3.5 E 4 6 2 3 1019.1 1018.8 0.0
25/08:00pm 13.6 12.9 6.9 64 3.3 CALM 0 0 0 0 1018.8 1018.5 0.0
25/07:30pm 14.9 14.0 6.0 55 4.3 CALM 0 0 0 0 1018.5 1018.2 0.0
25/07:00pm 16.1 15.1 5.4 49 5.2 CALM 0 0 0 0 1018.3 1018.0 0.0
25/06:30pm 17.1 16.1 5.7 47 5.6 CALM 0 2 0 1 1017.8 1017.5 0.0
25/06:00pm 19.0 17.1 2.8 34 7.6 S 2 4 1 2 1017.6 1017.3 0.0
25/05:30pm 20.8 18.9 2.6 30 8.6 SSW 2 4 1 2 1017.4 1017.1 0.0
25/05:00pm 21.9 19.7 3.1 29 9.1 SSW 4 6 2 3 1017.1 1016.8 0.0
25/04:30pm 22.5 20.1 2.1 26 9.7 SSW 4 6 2 3 1016.9 1016.6 0.0
25/04:00pm 22.6 19.5 1.6 25 9.9 S 7 11 4 6 1016.8 1016.5 0.0
25/03:30pm 22.8 19.7 1.2 24 10.1 WSW 7 15 4 8 1016.9 1016.6 0.0
25/03:00pm 22.8 19.9 2.8 27 9.7 WSW 7 11 4 6 1016.8 1016.5 0.0
25/02:30pm 22.9 20.9 4.4 30 9.2 ESE 4 7 2 4 1017.0 1016.7 0.0
25/02:00pm 21.9 19.4 4.0 31 8.8 SSE 6 11 3 6 1017.1 1016.8 0.0
25/01:30pm 21.4 18.4 1.1 26 9.4 WSW 6 9 3 5 1017.5 1017.2 0.0
25/01:00pm 21.1 18.6 3.8 32 8.4 W 6 9 3 5 1018.1 1017.8 0.0
25/12:30pm 20.9 18.7 3.6 32 8.4 ENE 4 9 2 5 1018.7 1018.4 0.0
25/12:00pm 19.7 17.0 3.8 35 7.6 SSE 7 13 4 7 1019.4 1019.1 0.0
25/11:30am 20.1 17.7 4.2 35 7.7 ENE 6 9 3 5 1019.7 1019.4 0.0
25/11:00am 19.5 17.4 4.0 36 7.5 ENE 4 9 2 5 1020.2 1019.9 0.0
25/10:30am 18.8 17.4 3.8 37 7.2 CALM 0 6 0 3 1020.4 1020.1 0.0
25/10:00am 17.7 15.1 4.3 41 6.4 SSE 7 13 4 7 1020.7 1020.4 0.0
25/09:30am 16.8 13.5 4.8 45 5.8 SSW 11 15 6 8 1020.7 1020.4 0.0
25/09:00am 15.8 12.5 4.5 47 5.3 SSW 11 20 6 11 1020.7 1020.4 0.0
25/08:30am 14.3 11.2 5.4 55 4.3 SSW 11 19 6 10 1020.6 1020.3 0.0
25/08:00am 12.7 10.3 5.4 61 3.4 SW 7 15 4 8 1020.4 1020.1 0.0
25/07:30am 11.8 9.3 4.8 62 3.2 SW 7 13 4 7 1020.3 1020.0 0.0
25/07:00am 11.2 8.7 4.7 64 3.0 WSW 7 9 4 5 1020.2 1019.9 0.0
25/06:30am 11.4 9.4 4.4 62 3.2 S 4 9 2 5 1019.6 1019.3 0.0
25/06:00am 11.8 9.4 4.5 61 3.3 SSW 6 9 3 5 1019.1 1018.8 0.0
25/05:30am 12.1 9.7 4.3 59 3.6 SW 6 15 3 8 1018.9 1018.6 0.0
25/05:00am 12.8 9.5 4.8 58 3.7 SW 11 20 6 11 1018.4 1018.1 0.0
25/04:30am 12.8 10.4 5.2 60 3.6 SSW 7 13 4 7 1018.2 1017.9 0.0
25/04:00am 13.1 10.9 5.3 59 3.7 SW 6 9 3 5 1017.9 1017.6 0.0
25/03:30am 13.2 11.4 5.6 60 3.6 SW 4 7 2 4 1017.7 1017.4 0.0
25/03:00am 14.0 11.9 5.6 57 4.0 SSW 6 9 3 5 1017.8 1017.5 0.0
25/02:30am 14.7 12.5 6.0 56 4.2 SSW 7 13 4 7 1017.8 1017.5 0.0
25/02:00am 14.8 12.3 6.6 58 4.0 SSW 9 15 5 8 1017.8 1017.5 0.0
25/01:30am 14.5 12.7 7.8 64 3.4 SW 7 11 4 6 1017.8 1017.5 0.0
25/01:00am 14.8 12.7 8.3 65 3.3 SW 9 13 5 7 1017.9 1017.6 0.0
25/12:30am 14.9 13.2 8.4 65 3.3 SW 7 13 4 7 1017.7 1017.4 0.0
25/12:00am 14.9 13.4 9.1 68 3.0 WSW 7 9 4 5 1017.6 1017.3 0.0
 
Date/Time
EST
Temp
°C
App
Temp
°C
Dew
Point
°C
Rel
Hum
%
Delta-T
°C
Wind Press
QNH
hPa
Press
MSL
hPa
Rain since
9am
mm
Dir  Spd
km/h
Gust
km/h
Spd
kts
Gust
kts
24/11:30pm 15.3 13.9 9.7 69 2.9 W 7 9 4 5 1017.7 1017.4 0.0
24/11:00pm 16.0 14.7 9.9 67 3.2 W 7 11 4 6 1017.7 1017.4 0.0
24/10:30pm 16.5 15.2 10.1 66 3.4 WSW 7 9 4 5 1017.6 1017.3 0.0
24/10:00pm 16.5 15.5 10.4 67 3.3 W 6 7 3 4 1017.4 1017.1 0.0
24/09:30pm 17.7 16.4 10.1 61 4.1 W 7 11 4 6 1017.4 1017.1 0.0
24/09:00pm 17.8 16.2 10.2 61 4.1 W 9 11 5 6 1017.1 1016.8 0.0
24/08:30pm 18.5 17.2 10.1 58 4.5 WSW 7 9 4 5 1016.8 1016.5 0.0
24/08:00pm 18.7 17.0 10.0 57 4.7 W 9 9 5 5 1016.6 1016.2 0.0
24/07:30pm 19.4 18.1 9.9 54 5.1 W 7 13 4 7 1016.3 1015.9 0.0
24/07:00pm 19.7 18.4 9.9 53 5.3 WSW 7 11 4 6 1015.8 1015.5 0.0
24/06:30pm 22.4 20.2 9.2 43 7.2 W 11 13 6 7 1015.2 1014.9 0.0
24/06:00pm 23.3 21.4 9.0 40 7.8 W 9 15 5 8 1014.8 1014.5 0.0
24/05:30pm 25.1 22.8 9.0 36 8.8 W 11 17 6 9 1014.2 1013.9 0.0
24/05:00pm 26.7 24.5 9.5 34 9.6 W 11 19 6 10 1013.9 1013.6 0.0
24/04:30pm 27.4 24.0 9.3 32 10.1 W 17 24 9 13 1013.6 1013.3 0.0
24/04:00pm 27.9 24.8 8.7 30 10.6 W 15 20 8 11 1013.3 1012.9 0.0
24/03:30pm 28.6 25.9 10.3 32 10.4 WNW 15 20 8 11 1013.3 1012.9 0.0
24/03:00pm 28.3 25.9 10.0 32 10.4 W 13 26 7 14 1013.5 1013.1 0.0
24/02:30pm 27.9 26.4 10.6 34 9.9 W 9 20 5 11 1013.7 1013.4 0.0
24/02:00pm 27.0 26.3 11.5 38 9.0 NNW 6 9 3 5 1014.1 1013.8 0.0
24/01:30pm 26.5 25.0 10.6 37 9.0 NNW 9 15 5 8 1014.6 1014.3 0.0
24/01:00pm 26.1 24.5 10.3 37 8.9 NW 9 15 5 8 1015.3 1015.0 0.0
24/12:30pm 25.5 24.7 11.7 42 7.9 NNW 7 13 4 7 1016.2 1015.8 0.0
24/12:00pm 25.2 25.1 12.1 44 7.6 NW 4 7 2 4 1016.7 1016.3 0.0
24/11:30am 23.6 22.7 10.6 44 7.3 N 6 13 3 7 1017.1 1016.8 0.0

Other Formats:

Comma delimited format used in spreadsheet applications
http://www.bom.gov.au/fwo/IDQ60801/IDQ60801.94399.axf

JavaScript Object Notation format (JSON) in row-major order
http://www.bom.gov.au/fwo/IDQ60801/IDQ60801.94399.json